Airfield :
LOGIN :

Register | Disclaimer

   EN    FR    IT 

 










Legend :    VFR   Marginal VFR   IFR   Intensive IFR   Very Intensive IFR
Visi :
Ceiling :
>= 8 km
>= 3000ft
5 to 8 km
1000 to 3000 ft
1500m to 5 km
500 to 1000 ft
800 to 1500m
200 to 500 ft
< 800m
< 200 ft
Symbols :   Thunderstorms  Fog  Heavy snow  Heavy precipitations  Wind > 20 kt
SIGMETs :     Misc.  Thunderstorms  Icing  Turbulence  Mountain Waves  Volcanic Ashes







- Airport Elevation : 13 ft
- IATA code : LYX
- Download approach charts


EGMD - Lydd

CURRENT METAR :
  • 220820Z 27007KT 9999 FEW030 13/10 Q1020

EXPIRED METARs :
  • 220750Z 25008KT 9999 FEW030 13/10 Q1020
  • 220720Z 25007KT 9999 FEW030 13/10 Q1020
  • 220650Z AUTO 26005KT 9999 NCD 12/09 Q1020
  • 220620Z AUTO 26005KT 9999 NCD 12/09 Q1020
  • 220550Z AUTO 26007KT 9999 NCD 12/09 Q1020

TAF TAF EGMD
Valid from the 22 at 09:00 until the 22 at 18:00 UTC


220802Z 2209/2218 26010KT 9999 FEW035
PROB30
TEMPO 2211/2213 7000 RA BKN014
PROB30
TEMPO 2212/2218 3000 +RA BKN007
TEMPO 2213/2218 7000 RA BKN014
BECMG 2215/2218 14004KT
ATIS : +44 1797 322 422
No reported NOTAMs for that airfield.
2 SIGMETs reported for the London FIR (EGTT) :
 
Severe turbulence
EGTT SIGMET 04 VALID 220600/221000 EGRR
EGTT LONDON FIR SEV TURB FCST WI N5310 E00303 - N5500 W00425 - N5500 E00200 - N5310 E00303 FL220/360 MOV NE 25KT NC=
Severe icing
EGTT SIGMET 03 VALID 220600/221000 EGRR
EGTT LONDON FIR SEV ICE FCST WI N5000 W00200 - N4928 W00445 - N5055 W00800 - N5100 W00800 - N5220 W00530 - N5000 W00038 - N5000 W00200 FL060/150 MOV E 25KT NC=



MET'MAP, your aeronautical weather chart ! - Copyright ORBIFLY December 2007 - Disclaimer

ORBIFLY MET'MAP TEAM :

Programming & Development : Alexandra Zaïnal
Concept & Development : Baudouin d'Aumeries
Co-Development & Prog : Marc-Olivier Méhu
Technical & hardware support : Manuel Goepfert

Contact : metmap@orbifly.com




SOURCES & CREDITS :

   NOAA